sensor_id;sensor_type;location;lat;lon;timestamp;P1;durP1;ratioP1;P2;durP2;ratioP2
16248;SDS011;8232;51.678;6.610;2022-09-09T00:01:35;1.67;;;1.00;;
16248;SDS011;8232;51.678;6.610;2022-09-09T00:04:12;3.75;;;1.10;;
16248;SDS011;8232;51.678;6.610;2022-09-09T00:06:43;1.48;;;0.80;;
16248;SDS011;8232;51.678;6.610;2022-09-09T00:09:16;3.22;;;1.20;;
16248;SDS011;8232;51.678;6.610;2022-09-09T00:11:45;7.35;;;1.20;;
16248;SDS011;8232;51.678;6.610;2022-09-09T00:14:17;2.10;;;1.20;;
16248;SDS011;8232;51.678;6.610;2022-09-09T00:16:50;3.50;;;1.05;;
16248;SDS011;8232;51.678;6.610;2022-09-09T00:19:22;4.22;;;1.30;;
16248;SDS011;8232;51.678;6.610;2022-09-09T00:21:52;3.70;;;1.08;;
16248;SDS011;8232;51.678;6.610;2022-09-09T00:24:29;1.98;;;0.90;;
16248;SDS011;8232;51.678;6.610;2022-09-09T00:27:06;1.95;;;1.35;;
16248;SDS011;8232;51.678;6.610;2022-09-09T00:29:39;2.05;;;1.25;;
16248;SDS011;8232;51.678;6.610;2022-09-09T00:32:12;6.25;;;1.33;;
16248;SDS011;8232;51.678;6.610;2022-09-09T00:34:42;4.60;;;1.30;;
16248;SDS011;8232;51.678;6.610;2022-09-09T00:37:13;2.35;;;1.05;;
16248;SDS011;8232;51.678;6.610;2022-09-09T00:39:42;2.20;;;1.40;;
16248;SDS011;8232;51.678;6.610;2022-09-09T00:42:14;2.13;;;1.33;;
16248;SDS011;8232;51.678;6.610;2022-09-09T00:44:48;4.63;;;1.30;;
16248;SDS011;8232;51.678;6.610;2022-09-09T00:47:24;3.38;;;1.08;;
16248;SDS011;8232;51.678;6.610;2022-09-09T00:50:09;2.95;;;1.10;;
16248;SDS011;8232;51.678;6.610;2022-09-09T00:52:56;1.40;;;1.10;;
16248;SDS011;8232;51.678;6.610;2022-09-09T00:55:37;8.60;;;1.08;;
16248;SDS011;8232;51.678;6.610;2022-09-09T00:58:10;2.95;;;1.23;;
16248;SDS011;8232;51.678;6.610;2022-09-09T01:00:39;1.05;;;0.90;;
16248;SDS011;8232;51.678;6.610;2022-09-09T01:03:20;2.00;;;0.90;;
16248;SDS011;8232;51.678;6.610;2022-09-09T01:06:00;3.53;;;1.02;;
16248;SDS011;8232;51.678;6.610;2022-09-09T01:08:50;6.03;;;1.40;;
16248;SDS011;8232;51.678;6.610;2022-09-09T01:11:31;3.92;;;1.55;;
16248;SDS011;8232;51.678;6.610;2022-09-09T01:14:10;2.67;;;1.40;;
16248;SDS011;8232;51.678;6.610;2022-09-09T01:16:43;1.58;;;1.33;;
16248;SDS011;8232;51.678;6.610;2022-09-09T01:19:13;1.63;;;1.23;;
16248;SDS011;8232;51.678;6.610;2022-09-09T01:21:50;2.83;;;1.63;;
16248;SDS011;8232;51.678;6.610;2022-09-09T01:24:25;4.63;;;1.80;;
16248;SDS011;8232;51.678;6.610;2022-09-09T01:26:56;4.00;;;1.67;;
16248;SDS011;8232;51.678;6.610;2022-09-09T01:29:25;3.97;;;1.90;;
16248;SDS011;8232;51.678;6.610;2022-09-09T01:31:53;3.63;;;1.75;;
16248;SDS011;8232;51.678;6.610;2022-09-09T01:34:21;2.65;;;1.67;;
16248;SDS011;8232;51.678;6.610;2022-09-09T01:36:49;3.20;;;1.67;;
16248;SDS011;8232;51.678;6.610;2022-09-09T01:39:21;3.33;;;2.08;;
16248;SDS011;8232;51.678;6.610;2022-09-09T01:41:48;3.97;;;2.13;;
16248;SDS011;8232;51.678;6.610;2022-09-09T01:44:16;2.58;;;2.00;;
16248;SDS011;8232;51.678;6.610;2022-09-09T01:46:44;2.70;;;2.17;;
16248;SDS011;8232;51.678;6.610;2022-09-09T01:49:12;6.53;;;2.55;;
16248;SDS011;8232;51.678;6.610;2022-09-09T01:51:39;4.63;;;2.50;;
16248;SDS011;8232;51.678;6.610;2022-09-09T01:54:08;2.75;;;1.85;;
16248;SDS011;8232;51.678;6.610;2022-09-09T01:56:37;4.50;;;2.33;;
16248;SDS011;8232;51.678;6.610;2022-09-09T01:59:13;3.50;;;2.30;;
16248;SDS011;8232;51.678;6.610;2022-09-09T02:01:51;4.00;;;2.55;;
16248;SDS011;8232;51.678;6.610;2022-09-09T02:04:32;7.13;;;2.50;;
16248;SDS011;8232;51.678;6.610;2022-09-09T02:07:06;4.50;;;2.25;;
16248;SDS011;8232;51.678;6.610;2022-09-09T02:09:44;4.10;;;2.53;;
16248;SDS011;8232;51.678;6.610;2022-09-09T02:12:16;7.30;;;2.50;;
16248;SDS011;8232;51.678;6.610;2022-09-09T02:14:50;5.28;;;2.78;;
16248;SDS011;8232;51.678;6.610;2022-09-09T02:17:22;4.10;;;2.50;;
16248;SDS011;8232;51.678;6.610;2022-09-09T02:19:56;7.13;;;3.10;;
16248;SDS011;8232;51.678;6.610;2022-09-09T02:22:29;6.75;;;2.75;;
16248;SDS011;8232;51.678;6.610;2022-09-09T02:24:59;4.93;;;2.60;;
16248;SDS011;8232;51.678;6.610;2022-09-09T02:27:26;5.25;;;2.72;;
16248;SDS011;8232;51.678;6.610;2022-09-09T02:29:56;7.38;;;3.42;;
16248;SDS011;8232;51.678;6.610;2022-09-09T02:32:27;4.63;;;3.40;;
16248;SDS011;8232;51.678;6.610;2022-09-09T02:34:56;6.25;;;3.35;;
16248;SDS011;8232;51.678;6.610;2022-09-09T02:37:28;5.80;;;3.20;;
16248;SDS011;8232;51.678;6.610;2022-09-09T02:40:00;6.28;;;3.72;;
16248;SDS011;8232;51.678;6.610;2022-09-09T02:42:27;6.88;;;3.72;;
16248;SDS011;8232;51.678;6.610;2022-09-09T02:44:55;6.63;;;3.45;;
16248;SDS011;8232;51.678;6.610;2022-09-09T02:47:25;5.53;;;3.92;;
16248;SDS011;8232;51.678;6.610;2022-09-09T02:49:58;4.63;;;3.55;;
16248;SDS011;8232;51.678;6.610;2022-09-09T02:52:33;7.65;;;3.95;;
16248;SDS011;8232;51.678;6.610;2022-09-09T02:55:08;5.30;;;3.88;;
16248;SDS011;8232;51.678;6.610;2022-09-09T02:57:41;5.07;;;3.42;;
16248;SDS011;8232;51.678;6.610;2022-09-09T03:00:12;5.57;;;3.60;;
16248;SDS011;8232;51.678;6.610;2022-09-09T03:02:39;6.50;;;3.97;;
16248;SDS011;8232;51.678;6.610;2022-09-09T03:05:07;4.22;;;3.60;;
16248;SDS011;8232;51.678;6.610;2022-09-09T03:07:34;7.68;;;4.00;;
16248;SDS011;8232;51.678;6.610;2022-09-09T03:10:01;3.80;;;3.13;;
16248;SDS011;8232;51.678;6.610;2022-09-09T03:12:29;10.82;;;3.97;;
16248;SDS011;8232;51.678;6.610;2022-09-09T03:14:56;9.52;;;3.30;;
16248;SDS011;8232;51.678;6.610;2022-09-09T03:17:24;6.53;;;3.85;;
16248;SDS011;8232;51.678;6.610;2022-09-09T03:19:53;7.78;;;3.83;;
16248;SDS011;8232;51.678;6.610;2022-09-09T03:22:20;6.18;;;4.13;;
16248;SDS011;8232;51.678;6.610;2022-09-09T03:24:46;7.25;;;4.18;;
16248;SDS011;8232;51.678;6.610;2022-09-09T03:27:13;9.18;;;4.10;;
16248;SDS011;8232;51.678;6.610;2022-09-09T03:29:40;5.35;;;3.83;;
16248;SDS011;8232;51.678;6.610;2022-09-09T03:32:07;6.18;;;4.05;;
16248;SDS011;8232;51.678;6.610;2022-09-09T03:34:36;6.47;;;2.97;;
16248;SDS011;8232;51.678;6.610;2022-09-09T03:37:05;4.95;;;3.38;;
16248;SDS011;8232;51.678;6.610;2022-09-09T03:39:32;7.03;;;3.75;;
16248;SDS011;8232;51.678;6.610;2022-09-09T03:41:59;6.63;;;3.17;;
16248;SDS011;8232;51.678;6.610;2022-09-09T03:44:28;7.45;;;3.30;;
16248;SDS011;8232;51.678;6.610;2022-09-09T03:46:55;6.13;;;2.20;;
16248;SDS011;8232;51.678;6.610;2022-09-09T03:49:25;8.02;;;2.83;;
16248;SDS011;8232;51.678;6.610;2022-09-09T03:51:55;6.50;;;2.63;;
16248;SDS011;8232;51.678;6.610;2022-09-09T03:54:23;4.57;;;2.67;;
16248;SDS011;8232;51.678;6.610;2022-09-09T03:56:50;10.90;;;3.20;;
16248;SDS011;8232;51.678;6.610;2022-09-09T03:59:17;4.78;;;2.63;;
16248;SDS011;8232;51.678;6.610;2022-09-09T04:01:45;8.90;;;2.85;;
16248;SDS011;8232;51.678;6.610;2022-09-09T04:04:12;6.15;;;2.25;;
16248;SDS011;8232;51.678;6.610;2022-09-09T04:06:39;12.30;;;3.60;;
16248;SDS011;8232;51.678;6.610;2022-09-09T04:09:07;8.68;;;3.05;;
16248;SDS011;8232;51.678;6.610;2022-09-09T04:11:34;7.03;;;2.17;;
16248;SDS011;8232;51.678;6.610;2022-09-09T04:14:02;8.52;;;2.50;;
16248;SDS011;8232;51.678;6.610;2022-09-09T04:16:31;7.38;;;2.50;;
16248;SDS011;8232;51.678;6.610;2022-09-09T04:18:57;9.40;;;2.97;;
16248;SDS011;8232;51.678;6.610;2022-09-09T04:21:25;6.85;;;2.20;;
16248;SDS011;8232;51.678;6.610;2022-09-09T04:23:51;8.02;;;2.40;;
16248;SDS011;8232;51.678;6.610;2022-09-09T04:26:20;9.30;;;2.47;;
16248;SDS011;8232;51.678;6.610;2022-09-09T04:28:46;6.93;;;2.40;;
16248;SDS011;8232;51.678;6.610;2022-09-09T04:31:14;7.60;;;2.50;;
16248;SDS011;8232;51.678;6.610;2022-09-09T04:33:43;6.47;;;2.33;;
16248;SDS011;8232;51.678;6.610;2022-09-09T04:36:11;6.30;;;2.80;;
16248;SDS011;8232;51.678;6.610;2022-09-09T04:38:38;10.45;;;2.50;;
16248;SDS011;8232;51.678;6.610;2022-09-09T04:41:05;4.72;;;2.53;;
16248;SDS011;8232;51.678;6.610;2022-09-09T04:43:37;5.28;;;2.53;;
16248;SDS011;8232;51.678;6.610;2022-09-09T04:46:04;7.55;;;2.80;;
16248;SDS011;8232;51.678;6.610;2022-09-09T04:48:31;6.82;;;3.10;;
16248;SDS011;8232;51.678;6.610;2022-09-09T04:50:59;6.50;;;2.55;;
16248;SDS011;8232;51.678;6.610;2022-09-09T04:53:27;8.82;;;2.85;;
16248;SDS011;8232;51.678;6.610;2022-09-09T04:56:00;12.60;;;2.70;;
16248;SDS011;8232;51.678;6.610;2022-09-09T04:58:28;9.35;;;2.78;;
16248;SDS011;8232;51.678;6.610;2022-09-09T05:00:56;7.90;;;2.80;;
16248;SDS011;8232;51.678;6.610;2022-09-09T05:03:29;6.75;;;2.55;;
16248;SDS011;8232;51.678;6.610;2022-09-09T05:06:01;6.10;;;2.58;;
16248;SDS011;8232;51.678;6.610;2022-09-09T05:08:29;6.80;;;2.50;;
16248;SDS011;8232;51.678;6.610;2022-09-09T05:10:56;6.63;;;2.55;;
16248;SDS011;8232;51.678;6.610;2022-09-09T05:13:24;12.98;;;2.83;;
16248;SDS011;8232;51.678;6.610;2022-09-09T05:15:51;8.57;;;2.75;;
16248;SDS011;8232;51.678;6.610;2022-09-09T05:18:20;6.95;;;2.70;;
16248;SDS011;8232;51.678;6.610;2022-09-09T05:20:47;13.45;;;3.03;;
16248;SDS011;8232;51.678;6.610;2022-09-09T05:23:16;7.55;;;3.20;;
16248;SDS011;8232;51.678;6.610;2022-09-09T05:25:42;6.13;;;2.92;;
16248;SDS011;8232;51.678;6.610;2022-09-09T05:28:11;5.32;;;2.95;;
16248;SDS011;8232;51.678;6.610;2022-09-09T05:30:38;6.68;;;2.78;;
16248;SDS011;8232;51.678;6.610;2022-09-09T05:33:05;14.35;;;3.28;;
16248;SDS011;8232;51.678;6.610;2022-09-09T05:35:35;10.20;;;2.80;;
16248;SDS011;8232;51.678;6.610;2022-09-09T05:38:03;6.68;;;2.83;;
16248;SDS011;8232;51.678;6.610;2022-09-09T05:40:29;7.68;;;3.15;;
16248;SDS011;8232;51.678;6.610;2022-09-09T05:42:59;3.78;;;2.63;;
16248;SDS011;8232;51.678;6.610;2022-09-09T05:45:26;7.70;;;3.00;;
16248;SDS011;8232;51.678;6.610;2022-09-09T05:47:53;9.75;;;3.38;;
16248;SDS011;8232;51.678;6.610;2022-09-09T05:50:20;10.45;;;2.80;;
16248;SDS011;8232;51.678;6.610;2022-09-09T05:52:48;7.18;;;2.80;;
16248;SDS011;8232;51.678;6.610;2022-09-09T05:55:15;7.43;;;2.90;;
16248;SDS011;8232;51.678;6.610;2022-09-09T05:57:42;8.18;;;2.65;;
16248;SDS011;8232;51.678;6.610;2022-09-09T06:00:14;7.68;;;2.60;;
16248;SDS011;8232;51.678;6.610;2022-09-09T06:02:41;7.93;;;2.42;;
16248;SDS011;8232;51.678;6.610;2022-09-09T06:05:08;7.45;;;2.20;;
16248;SDS011;8232;51.678;6.610;2022-09-09T06:07:35;6.13;;;2.35;;
16248;SDS011;8232;51.678;6.610;2022-09-09T06:10:04;9.20;;;3.10;;
16248;SDS011;8232;51.678;6.610;2022-09-09T06:12:32;7.63;;;2.47;;
16248;SDS011;8232;51.678;6.610;2022-09-09T06:14:59;7.30;;;3.35;;
16248;SDS011;8232;51.678;6.610;2022-09-09T06:17:25;12.85;;;2.83;;
16248;SDS011;8232;51.678;6.610;2022-09-09T06:19:52;11.57;;;3.03;;
16248;SDS011;8232;51.678;6.610;2022-09-09T06:22:20;7.68;;;2.88;;
16248;SDS011;8232;51.678;6.610;2022-09-09T06:24:47;6.65;;;2.85;;
16248;SDS011;8232;51.678;6.610;2022-09-09T06:27:15;5.97;;;2.60;;
16248;SDS011;8232;51.678;6.610;2022-09-09T06:29:42;11.35;;;2.85;;
16248;SDS011;8232;51.678;6.610;2022-09-09T06:32:09;9.70;;;2.78;;
16248;SDS011;8232;51.678;6.610;2022-09-09T06:34:35;9.07;;;2.53;;
16248;SDS011;8232;51.678;6.610;2022-09-09T06:37:02;7.50;;;2.63;;
16248;SDS011;8232;51.678;6.610;2022-09-09T06:39:31;8.65;;;2.63;;
16248;SDS011;8232;51.678;6.610;2022-09-09T06:41:58;10.00;;;3.08;;
16248;SDS011;8232;51.678;6.610;2022-09-09T06:44:26;9.43;;;2.38;;
16248;SDS011;8232;51.678;6.610;2022-09-09T06:46:53;6.72;;;2.83;;
16248;SDS011;8232;51.678;6.610;2022-09-09T06:49:20;8.23;;;2.25;;
16248;SDS011;8232;51.678;6.610;2022-09-09T06:51:46;10.00;;;2.80;;
16248;SDS011;8232;51.678;6.610;2022-09-09T06:54:14;7.63;;;2.63;;
16248;SDS011;8232;51.678;6.610;2022-09-09T06:56:41;11.65;;;2.65;;
16248;SDS011;8232;51.678;6.610;2022-09-09T06:59:10;9.77;;;2.67;;
16248;SDS011;8232;51.678;6.610;2022-09-09T07:01:39;11.85;;;2.67;;
16248;SDS011;8232;51.678;6.610;2022-09-09T07:04:07;8.57;;;2.60;;
16248;SDS011;8232;51.678;6.610;2022-09-09T07:06:36;10.80;;;2.40;;
16248;SDS011;8232;51.678;6.610;2022-09-09T07:09:04;9.20;;;2.55;;
16248;SDS011;8232;51.678;6.610;2022-09-09T07:11:33;8.82;;;2.40;;
16248;SDS011;8232;51.678;6.610;2022-09-09T07:14:03;8.15;;;2.92;;
16248;SDS011;8232;51.678;6.610;2022-09-09T07:16:30;9.50;;;2.30;;
16248;SDS011;8232;51.678;6.610;2022-09-09T07:18:59;9.65;;;2.20;;
16248;SDS011;8232;51.678;6.610;2022-09-09T07:21:28;6.80;;;2.50;;
16248;SDS011;8232;51.678;6.610;2022-09-09T07:23:56;6.85;;;2.20;;
16248;SDS011;8232;51.678;6.610;2022-09-09T07:26:25;4.32;;;2.20;;
16248;SDS011;8232;51.678;6.610;2022-09-09T07:28:53;8.65;;;2.17;;
16248;SDS011;8232;51.678;6.610;2022-09-09T07:31:21;7.03;;;2.25;;
16248;SDS011;8232;51.678;6.610;2022-09-09T07:33:50;7.38;;;2.10;;
16248;SDS011;8232;51.678;6.610;2022-09-09T07:36:19;10.98;;;2.42;;
16248;SDS011;8232;51.678;6.610;2022-09-09T07:38:48;10.52;;;2.70;;
16248;SDS011;8232;51.678;6.610;2022-09-09T07:41:17;3.35;;;1.48;;
16248;SDS011;8232;51.678;6.610;2022-09-09T07:43:47;6.75;;;2.00;;
16248;SDS011;8232;51.678;6.610;2022-09-09T07:46:15;8.75;;;2.28;;
16248;SDS011;8232;51.678;6.610;2022-09-09T07:48:44;9.63;;;2.35;;
16248;SDS011;8232;51.678;6.610;2022-09-09T07:51:12;5.53;;;2.45;;
16248;SDS011;8232;51.678;6.610;2022-09-09T07:53:46;6.05;;;2.03;;
16248;SDS011;8232;51.678;6.610;2022-09-09T07:56:14;9.00;;;2.17;;
16248;SDS011;8232;51.678;6.610;2022-09-09T07:58:44;11.13;;;2.20;;
16248;SDS011;8232;51.678;6.610;2022-09-09T08:01:13;10.98;;;2.38;;
16248;SDS011;8232;51.678;6.610;2022-09-09T08:03:41;6.63;;;1.95;;
16248;SDS011;8232;51.678;6.610;2022-09-09T08:06:09;6.38;;;1.80;;
16248;SDS011;8232;51.678;6.610;2022-09-09T08:08:38;7.55;;;2.00;;
16248;SDS011;8232;51.678;6.610;2022-09-09T08:11:09;8.68;;;2.10;;
16248;SDS011;8232;51.678;6.610;2022-09-09T08:13:37;7.10;;;1.90;;
16248;SDS011;8232;51.678;6.610;2022-09-09T08:16:06;4.80;;;1.80;;
16248;SDS011;8232;51.678;6.610;2022-09-09T08:18:33;7.00;;;1.80;;
16248;SDS011;8232;51.678;6.610;2022-09-09T08:21:08;5.75;;;2.10;;
16248;SDS011;8232;51.678;6.610;2022-09-09T08:23:37;8.95;;;1.95;;
16248;SDS011;8232;51.678;6.610;2022-09-09T08:26:09;6.75;;;1.70;;
16248;SDS011;8232;51.678;6.610;2022-09-09T08:28:38;5.82;;;2.10;;
16248;SDS011;8232;51.678;6.610;2022-09-09T08:31:09;6.20;;;1.80;;
16248;SDS011;8232;51.678;6.610;2022-09-09T08:33:38;6.65;;;1.95;;
16248;SDS011;8232;51.678;6.610;2022-09-09T08:36:06;4.88;;;1.90;;
16248;SDS011;8232;51.678;6.610;2022-09-09T08:38:35;8.80;;;1.73;;
16248;SDS011;8232;51.678;6.610;2022-09-09T08:41:10;3.58;;;1.50;;
16248;SDS011;8232;51.678;6.610;2022-09-09T08:43:50;5.65;;;2.08;;
16248;SDS011;8232;51.678;6.610;2022-09-09T08:46:29;4.85;;;1.85;;
16248;SDS011;8232;51.678;6.610;2022-09-09T08:49:04;5.60;;;1.60;;
16248;SDS011;8232;51.678;6.610;2022-09-09T08:51:42;9.50;;;2.00;;
16248;SDS011;8232;51.678;6.610;2022-09-09T08:54:09;6.13;;;2.00;;
16248;SDS011;8232;51.678;6.610;2022-09-09T08:56:37;8.13;;;1.55;;
16248;SDS011;8232;51.678;6.610;2022-09-09T08:59:04;6.72;;;1.70;;
16248;SDS011;8232;51.678;6.610;2022-09-09T09:01:37;8.05;;;1.92;;
16248;SDS011;8232;51.678;6.610;2022-09-09T09:04:19;6.45;;;1.77;;
16248;SDS011;8232;51.678;6.610;2022-09-09T09:06:59;5.93;;;1.40;;
16248;SDS011;8232;51.678;6.610;2022-09-09T09:09:35;5.38;;;1.75;;
16248;SDS011;8232;51.678;6.610;2022-09-09T09:12:15;6.07;;;1.52;;
16248;SDS011;8232;51.678;6.610;2022-09-09T09:14:45;6.63;;;1.95;;
16248;SDS011;8232;51.678;6.610;2022-09-09T09:17:14;8.65;;;1.88;;
16248;SDS011;8232;51.678;6.610;2022-09-09T09:19:44;5.05;;;2.00;;
16248;SDS011;8232;51.678;6.610;2022-09-09T09:22:14;4.35;;;1.85;;
16248;SDS011;8232;51.678;6.610;2022-09-09T09:24:47;6.88;;;1.73;;
16248;SDS011;8232;51.678;6.610;2022-09-09T09:27:25;8.77;;;1.80;;
16248;SDS011;8232;51.678;6.610;2022-09-09T09:29:57;4.40;;;1.60;;
16248;SDS011;8232;51.678;6.610;2022-09-09T09:32:27;4.15;;;1.60;;
16248;SDS011;8232;51.678;6.610;2022-09-09T09:34:57;9.68;;;2.25;;
16248;SDS011;8232;51.678;6.610;2022-09-09T09:37:30;5.70;;;2.10;;
16248;SDS011;8232;51.678;6.610;2022-09-09T09:40:07;7.50;;;1.90;;
16248;SDS011;8232;51.678;6.610;2022-09-09T09:42:36;5.30;;;2.00;;
16248;SDS011;8232;51.678;6.610;2022-09-09T09:45:08;5.13;;;1.73;;
16248;SDS011;8232;51.678;6.610;2022-09-09T09:47:41;10.98;;;2.60;;
16248;SDS011;8232;51.678;6.610;2022-09-09T09:50:16;9.63;;;2.38;;
16248;SDS011;8232;51.678;6.610;2022-09-09T09:52:51;5.63;;;1.70;;
16248;SDS011;8232;51.678;6.610;2022-09-09T09:55:20;13.02;;;2.28;;
16248;SDS011;8232;51.678;6.610;2022-09-09T09:57:49;5.10;;;1.40;;
16248;SDS011;8232;51.678;6.610;2022-09-09T10:00:17;5.38;;;1.50;;
16248;SDS011;8232;51.678;6.610;2022-09-09T10:02:46;4.28;;;1.15;;
16248;SDS011;8232;51.678;6.610;2022-09-09T10:05:14;5.47;;;1.45;;
16248;SDS011;8232;51.678;6.610;2022-09-09T10:07:43;4.30;;;1.30;;
16248;SDS011;8232;51.678;6.610;2022-09-09T10:10:12;4.20;;;1.52;;
16248;SDS011;8232;51.678;6.610;2022-09-09T10:12:44;3.47;;;1.63;;
16248;SDS011;8232;51.678;6.610;2022-09-09T10:15:23;7.28;;;2.10;;
16248;SDS011;8232;51.678;6.610;2022-09-09T10:18:00;5.13;;;1.60;;
16248;SDS011;8232;51.678;6.610;2022-09-09T10:20:35;5.53;;;1.63;;
16248;SDS011;8232;51.678;6.610;2022-09-09T10:23:11;6.28;;;1.67;;
16248;SDS011;8232;51.678;6.610;2022-09-09T10:25:57;5.28;;;1.45;;
16248;SDS011;8232;51.678;6.610;2022-09-09T10:28:45;6.05;;;1.75;;
16248;SDS011;8232;51.678;6.610;2022-09-09T10:31:37;4.55;;;1.40;;
16248;SDS011;8232;51.678;6.610;2022-09-09T10:34:14;4.35;;;1.70;;
16248;SDS011;8232;51.678;6.610;2022-09-09T10:36:49;5.10;;;1.58;;
16248;SDS011;8232;51.678;6.610;2022-09-09T10:39:18;6.22;;;1.75;;
16248;SDS011;8232;51.678;6.610;2022-09-09T10:41:59;5.25;;;1.75;;
16248;SDS011;8232;51.678;6.610;2022-09-09T10:44:38;5.28;;;1.63;;
16248;SDS011;8232;51.678;6.610;2022-09-09T10:47:33;6.22;;;1.80;;
16248;SDS011;8232;51.678;6.610;2022-09-09T10:53:22;6.47;;;1.50;;
16248;SDS011;8232;51.678;6.610;2022-09-09T10:56:01;5.57;;;1.80;;
16248;SDS011;8232;51.678;6.610;2022-09-09T10:58:33;7.22;;;1.75;;
16248;SDS011;8232;51.678;6.610;2022-09-09T11:01:08;6.63;;;1.27;;
16248;SDS011;8232;51.678;6.610;2022-09-09T11:03:41;5.32;;;1.73;;
16248;SDS011;8232;51.678;6.610;2022-09-09T11:06:10;4.07;;;1.30;;
16248;SDS011;8232;51.678;6.610;2022-09-09T11:08:41;6.75;;;1.92;;
16248;SDS011;8232;51.678;6.610;2022-09-09T11:11:09;3.70;;;1.58;;
16248;SDS011;8232;51.678;6.610;2022-09-09T11:13:42;7.47;;;1.83;;
16248;SDS011;8232;51.678;6.610;2022-09-09T11:16:17;4.18;;;1.60;;
16248;SDS011;8232;51.678;6.610;2022-09-09T11:18:50;3.63;;;1.42;;
16248;SDS011;8232;51.678;6.610;2022-09-09T11:21:25;5.95;;;1.83;;
16248;SDS011;8232;51.678;6.610;2022-09-09T11:23:55;5.00;;;1.58;;
16248;SDS011;8232;51.678;6.610;2022-09-09T11:26:28;4.35;;;1.40;;
16248;SDS011;8232;51.678;6.610;2022-09-09T11:31:51;4.40;;;1.65;;
16248;SDS011;8232;51.678;6.610;2022-09-09T11:34:33;3.10;;;1.35;;
16248;SDS011;8232;51.678;6.610;2022-09-09T11:37:13;5.90;;;1.70;;
16248;SDS011;8232;51.678;6.610;2022-09-09T11:40:00;3.00;;;1.40;;
16248;SDS011;8232;51.678;6.610;2022-09-09T11:42:40;4.05;;;1.70;;
16248;SDS011;8232;51.678;6.610;2022-09-09T11:45:15;4.25;;;1.63;;
16248;SDS011;8232;51.678;6.610;2022-09-09T11:47:53;4.68;;;1.38;;
16248;SDS011;8232;51.678;6.610;2022-09-09T11:50:29;4.85;;;1.42;;
16248;SDS011;8232;51.678;6.610;2022-09-09T11:53:17;3.67;;;1.40;;
16248;SDS011;8232;51.678;6.610;2022-09-09T11:56:00;10.35;;;1.80;;
16248;SDS011;8232;51.678;6.610;2022-09-09T11:58:41;4.80;;;1.50;;
16248;SDS011;8232;51.678;6.610;2022-09-09T12:04:09;5.90;;;1.70;;
16248;SDS011;8232;51.678;6.610;2022-09-09T12:06:56;6.43;;;1.58;;
16248;SDS011;8232;51.678;6.610;2022-09-09T12:09:29;4.93;;;1.60;;
16248;SDS011;8232;51.678;6.610;2022-09-09T12:12:23;6.90;;;1.75;;
16248;SDS011;8232;51.678;6.610;2022-09-09T12:15:00;4.35;;;1.55;;
16248;SDS011;8232;51.678;6.610;2022-09-09T12:17:29;4.93;;;1.50;;
16248;SDS011;8232;51.678;6.610;2022-09-09T12:20:09;5.15;;;1.90;;
16248;SDS011;8232;51.678;6.610;2022-09-09T12:22:42;4.47;;;1.80;;
16248;SDS011;8232;51.678;6.610;2022-09-09T12:25:32;5.72;;;1.58;;
16248;SDS011;8232;51.678;6.610;2022-09-09T12:28:09;4.68;;;1.52;;
16248;SDS011;8232;51.678;6.610;2022-09-09T12:30:42;5.97;;;1.75;;
16248;SDS011;8232;51.678;6.610;2022-09-09T12:33:16;7.60;;;1.70;;
16248;SDS011;8232;51.678;6.610;2022-09-09T12:35:47;9.65;;;2.40;;
16248;SDS011;8232;51.678;6.610;2022-09-09T12:38:21;7.45;;;2.25;;
16248;SDS011;8232;51.678;6.610;2022-09-09T12:40:56;5.22;;;1.90;;
16248;SDS011;8232;51.678;6.610;2022-09-09T12:43:24;9.77;;;2.58;;
16248;SDS011;8232;51.678;6.610;2022-09-09T12:45:53;9.30;;;2.50;;
16248;SDS011;8232;51.678;6.610;2022-09-09T12:48:24;7.22;;;2.47;;
16248;SDS011;8232;51.678;6.610;2022-09-09T12:51:00;9.07;;;2.40;;
16248;SDS011;8232;51.678;6.610;2022-09-09T12:53:29;5.57;;;1.95;;
16248;SDS011;8232;51.678;6.610;2022-09-09T12:55:59;5.05;;;1.90;;
16248;SDS011;8232;51.678;6.610;2022-09-09T12:58:28;4.38;;;1.63;;
16248;SDS011;8232;51.678;6.610;2022-09-09T13:00:57;6.75;;;1.77;;
16248;SDS011;8232;51.678;6.610;2022-09-09T13:03:26;5.65;;;1.77;;
16248;SDS011;8232;51.678;6.610;2022-09-09T13:05:54;4.00;;;1.95;;
16248;SDS011;8232;51.678;6.610;2022-09-09T13:08:26;5.07;;;2.20;;
16248;SDS011;8232;51.678;6.610;2022-09-09T13:10:54;7.22;;;2.13;;
16248;SDS011;8232;51.678;6.610;2022-09-09T13:13:25;5.55;;;2.15;;
16248;SDS011;8232;51.678;6.610;2022-09-09T13:15:55;4.55;;;2.22;;
16248;SDS011;8232;51.678;6.610;2022-09-09T13:18:24;3.67;;;2.03;;
16248;SDS011;8232;51.678;6.610;2022-09-09T13:20:54;5.60;;;2.00;;
16248;SDS011;8232;51.678;6.610;2022-09-09T13:23:22;4.22;;;1.83;;
16248;SDS011;8232;51.678;6.610;2022-09-09T13:25:55;4.82;;;1.83;;
16248;SDS011;8232;51.678;6.610;2022-09-09T13:28:24;7.93;;;2.22;;
16248;SDS011;8232;51.678;6.610;2022-09-09T13:30:56;9.93;;;2.45;;
16248;SDS011;8232;51.678;6.610;2022-09-09T13:33:29;6.63;;;2.33;;
16248;SDS011;8232;51.678;6.610;2022-09-09T13:35:58;6.63;;;2.30;;
16248;SDS011;8232;51.678;6.610;2022-09-09T13:38:31;4.70;;;2.05;;
16248;SDS011;8232;51.678;6.610;2022-09-09T13:41:00;9.02;;;4.32;;
16248;SDS011;8232;51.678;6.610;2022-09-09T13:43:29;4.95;;;2.10;;
16248;SDS011;8232;51.678;6.610;2022-09-09T13:46:00;6.57;;;1.73;;
16248;SDS011;8232;51.678;6.610;2022-09-09T13:48:28;7.40;;;1.92;;
16248;SDS011;8232;51.678;6.610;2022-09-09T13:50:57;7.60;;;1.80;;
16248;SDS011;8232;51.678;6.610;2022-09-09T13:53:26;5.88;;;1.70;;
16248;SDS011;8232;51.678;6.610;2022-09-09T13:55:54;3.90;;;1.40;;
16248;SDS011;8232;51.678;6.610;2022-09-09T13:58:22;3.97;;;1.52;;
16248;SDS011;8232;51.678;6.610;2022-09-09T14:00:50;4.05;;;1.50;;
16248;SDS011;8232;51.678;6.610;2022-09-09T14:03:18;5.13;;;1.30;;
16248;SDS011;8232;51.678;6.610;2022-09-09T14:05:45;7.32;;;1.65;;
16248;SDS011;8232;51.678;6.610;2022-09-09T14:08:20;6.05;;;1.80;;
16248;SDS011;8232;51.678;6.610;2022-09-09T14:10:50;8.27;;;1.90;;
16248;SDS011;8232;51.678;6.610;2022-09-09T14:13:18;3.25;;;1.50;;
16248;SDS011;8232;51.678;6.610;2022-09-09T14:15:47;5.95;;;1.45;;
16248;SDS011;8232;51.678;6.610;2022-09-09T14:18:14;4.70;;;1.48;;
16248;SDS011;8232;51.678;6.610;2022-09-09T14:20:41;5.18;;;1.70;;
16248;SDS011;8232;51.678;6.610;2022-09-09T14:23:09;5.60;;;1.67;;
16248;SDS011;8232;51.678;6.610;2022-09-09T14:25:39;5.03;;;1.45;;
16248;SDS011;8232;51.678;6.610;2022-09-09T14:28:08;3.65;;;1.48;;
16248;SDS011;8232;51.678;6.610;2022-09-09T14:30:38;5.07;;;1.58;;
16248;SDS011;8232;51.678;6.610;2022-09-09T14:33:06;6.55;;;1.77;;
16248;SDS011;8232;51.678;6.610;2022-09-09T14:35:34;4.10;;;1.48;;
16248;SDS011;8232;51.678;6.610;2022-09-09T14:38:01;5.22;;;1.58;;
16248;SDS011;8232;51.678;6.610;2022-09-09T14:40:29;2.55;;;1.60;;
16248;SDS011;8232;51.678;6.610;2022-09-09T14:42:56;3.75;;;1.42;;
16248;SDS011;8232;51.678;6.610;2022-09-09T14:45:23;5.65;;;1.60;;
16248;SDS011;8232;51.678;6.610;2022-09-09T14:47:52;3.20;;;1.80;;
16248;SDS011;8232;51.678;6.610;2022-09-09T14:50:19;3.40;;;1.30;;
16248;SDS011;8232;51.678;6.610;2022-09-09T14:52:47;4.57;;;1.63;;
16248;SDS011;8232;51.678;6.610;2022-09-09T14:55:15;2.47;;;1.15;;
16248;SDS011;8232;51.678;6.610;2022-09-09T14:57:42;2.28;;;1.00;;
16248;SDS011;8232;51.678;6.610;2022-09-09T15:00:09;5.65;;;1.30;;
16248;SDS011;8232;51.678;6.610;2022-09-09T15:02:37;3.47;;;1.50;;
16248;SDS011;8232;51.678;6.610;2022-09-09T15:05:06;14.25;;;1.83;;
16248;SDS011;8232;51.678;6.610;2022-09-09T15:07:33;2.63;;;1.17;;
16248;SDS011;8232;51.678;6.610;2022-09-09T15:10:00;3.38;;;1.38;;
16248;SDS011;8232;51.678;6.610;2022-09-09T15:12:28;3.35;;;1.38;;
16248;SDS011;8232;51.678;6.610;2022-09-09T15:14:55;2.72;;;1.30;;
16248;SDS011;8232;51.678;6.610;2022-09-09T15:17:22;2.45;;;1.40;;
16248;SDS011;8232;51.678;6.610;2022-09-09T15:19:52;3.13;;;1.45;;
16248;SDS011;8232;51.678;6.610;2022-09-09T15:22:20;3.22;;;1.40;;
16248;SDS011;8232;51.678;6.610;2022-09-09T15:24:49;3.13;;;1.35;;
16248;SDS011;8232;51.678;6.610;2022-09-09T15:27:16;3.38;;;1.23;;
16248;SDS011;8232;51.678;6.610;2022-09-09T15:29:43;2.83;;;1.40;;
16248;SDS011;8232;51.678;6.610;2022-09-09T15:32:10;3.08;;;1.50;;